Fourmile, KY (40939)

11:50 PM EDT on July 25, 2016 (GMT -0400)
APRSWXNET | | Change Station

Elev 1085 ft 36.66 °N, 83.66 °W | Updated 39 minutes ago

Clear
Clear
74 °F
Feels Like 71 °F
N
0
Wind Variable Wind from East
Gusts 0.0 mph

Today
High -- | Low -- °F
--% Chance of Precip.
Yesterday
High -- | Low -- °F
Precip. -- in
Pressure 30.07 in
Visibility 10.0 miles
Clouds Clear
Heat Index 71 °F
Dew Point 72 °F
Humidity 95%
Rainfall in
Snow Depth Not available.
6:35 AM 8:46 PM
Waning Gibbous, 59% visible
METAR K1A6 260335Z AUTO 30003KT 10SM CLR 25/22 A3007 RMK AO2 T02510215
Pressure 30.07 in
Visibility 10.0 miles
Clouds Clear
Heat Index 71 °F
Dew Point 72 °F
Humidity 95%
Rainfall in
Snow Depth Not available.
6:35 AM 8:46 PM
Waning Gibbous, 59% visible
METAR K1A6 260335Z AUTO 30003KT 10SM CLR 25/22 A3007 RMK AO2 T02510215
Record highs are possible for parts of the Northeast Monday and Tuesday, as parts of the central U.S. take a little breather from the worst of summer's dog day heat.

Expansive high pressure in the upper atmosphere will focus on parts of the East and West this week, sending heat indices well into the triple digits from the Mid-Atlantic states into the South.

10-Day Weather Forecast

Almanac

Astronomy

Jul. 25, 2016 Rise Set
Actual Time
Civil Twilight
Nautical Twilight
Astronomical Twilight
Moon
Length of Visible Light
Length of Day
Tomorrow will be .
, % of the Moon is Illuminated

Today's Extremes

State Highs State Lows

Community

WunderPhotos

Upload Photos

1,927,523 photos uploaded!

WunderBlog® & News

Nearby

Air Quality

  Air Quality AQ Index Pollutant
Not available.

Snow Depth

Station Depth Elevation

Earthquake Activity

City Distance Mag. Time & Date
Minimum magnitude displayed is 2.5.

Coastal Water Temperatures

Place Temperature

Stations

Nearby Weather Stations

Station Location Temp. Windchill Dew Point Humidity Wind Precip. Elev Updated Type
                   

Watches & Warnings

There are currently no watches in effect.